createdAt,value
2023-01-13T00:01:31.145Z,87.84
2023-01-13T00:04:00.227Z,87.90
2023-01-13T00:06:29.686Z,87.84
2023-01-13T00:08:58.128Z,87.71
2023-01-13T00:11:26.722Z,87.60
2023-01-13T00:13:54.873Z,87.80
2023-01-13T00:16:23.122Z,87.72
2023-01-13T00:18:51.519Z,87.80
2023-01-13T00:21:24.835Z,87.89
2023-01-13T00:23:54.740Z,87.73
2023-01-13T00:26:25.837Z,87.82
2023-01-13T00:28:58.978Z,87.70
2023-01-13T00:31:28.432Z,87.58
2023-01-13T00:33:57.871Z,87.82
2023-01-13T00:36:26.466Z,88.00
2023-01-13T00:38:54.742Z,87.75
2023-01-13T00:41:24.727Z,87.90
2023-01-13T00:43:52.953Z,87.74
2023-01-13T00:46:21.951Z,87.71
2023-01-13T00:48:51.763Z,87.42
2023-01-13T00:51:22.003Z,87.68
2023-01-13T00:53:52.014Z,87.65
2023-01-13T00:56:41.313Z,87.72
2023-01-13T00:59:14.432Z,87.59
2023-01-13T01:01:42.803Z,87.74
2023-01-13T01:04:11.423Z,87.81
2023-01-13T01:06:39.556Z,87.84
2023-01-13T01:09:07.555Z,88.01
2023-01-13T01:11:35.613Z,87.93
2023-01-13T01:14:04.808Z,87.92
2023-01-13T01:16:34.457Z,87.94
2023-01-13T01:19:02.789Z,87.88
2023-01-13T01:21:32.384Z,88.14
2023-01-13T01:24:02.812Z,87.68
2023-01-13T01:26:31.947Z,87.85
2023-01-13T01:29:02.401Z,87.87
2023-01-13T01:31:33.221Z,88.10
2023-01-13T01:34:02.469Z,88.00
2023-01-13T01:36:30.638Z,87.88
2023-01-13T01:39:00.224Z,87.83
2023-01-13T01:41:32.456Z,87.76
2023-01-13T01:44:25.470Z,87.75
2023-01-13T01:46:53.948Z,87.56
2023-01-13T01:49:31.968Z,87.55
2023-01-13T01:52:17.179Z,87.62
2023-01-13T01:54:54.651Z,87.38
2023-01-13T01:57:38.868Z,87.32
2023-01-13T02:00:07.983Z,87.38
2023-01-13T02:02:47.668Z,87.40
2023-01-13T02:05:16.910Z,87.48
2023-01-13T02:07:49.730Z,87.46
2023-01-13T02:10:21.067Z,87.39
2023-01-13T02:12:50.953Z,87.61
2023-01-13T02:15:30.592Z,87.64
2023-01-13T02:17:58.510Z,87.50
2023-01-13T02:20:50.906Z,87.57
2023-01-13T02:24:12.853Z,87.69
2023-01-13T02:27:02.824Z,87.80
2023-01-13T02:30:13.693Z,87.68
2023-01-13T02:32:47.826Z,87.85
2023-01-13T02:35:26.660Z,87.96
2023-01-13T02:37:57.157Z,88.12
2023-01-13T02:40:31.292Z,88.08
2023-01-13T02:43:38.562Z,87.94
2023-01-13T02:46:25.577Z,88.09
2023-01-13T02:48:57.505Z,88.05
2023-01-13T02:51:29.198Z,87.88
2023-01-13T02:54:02.455Z,88.03
2023-01-13T02:56:34.655Z,87.70
2023-01-13T02:59:03.372Z,87.95
2023-01-13T03:01:31.280Z,87.65
2023-01-13T03:03:59.249Z,87.60
2023-01-13T03:06:48.645Z,87.81
2023-01-13T03:09:30.042Z,87.96
2023-01-13T03:12:16.860Z,88.08
2023-01-13T03:14:44.701Z,88.20
2023-01-13T03:17:49.082Z,88.08
2023-01-13T03:20:24.720Z,88.45
2023-01-13T03:23:03.604Z,88.49
2023-01-13T03:25:37.290Z,88.62
2023-01-13T03:28:10.910Z,88.59
2023-01-13T03:30:52.032Z,88.35
2023-01-13T03:33:27.831Z,88.38
2023-01-13T03:36:00.102Z,88.54
2023-01-13T03:38:33.025Z,88.51
2023-01-13T03:41:13.279Z,88.62
2023-01-13T03:44:16.956Z,88.29
2023-01-13T03:46:59.060Z,88.33
2023-01-13T03:49:32.236Z,88.67
2023-01-13T03:52:05.692Z,88.91
2023-01-13T03:54:43.382Z,88.97
2023-01-13T03:57:15.843Z,88.73
2023-01-13T03:59:47.438Z,88.78
2023-01-13T04:02:50.056Z,88.61
2023-01-13T04:05:19.029Z,88.65
2023-01-13T04:07:56.522Z,88.83
2023-01-13T04:11:06.746Z,89.00
2023-01-13T04:13:39.524Z,88.85
2023-01-13T04:16:09.086Z,88.87
2023-01-13T04:18:39.694Z,88.81
2023-01-13T04:21:08.492Z,88.83
2023-01-13T04:23:36.425Z,88.81
2023-01-13T04:26:04.640Z,89.01
2023-01-13T04:28:33.721Z,88.93
2023-01-13T04:31:01.641Z,88.80
2023-01-13T04:33:29.669Z,88.83
2023-01-13T04:35:57.631Z,88.76
2023-01-13T04:38:25.907Z,88.97
2023-01-13T04:40:53.777Z,88.98
2023-01-13T04:43:21.599Z,88.63
2023-01-13T04:45:49.612Z,88.60
2023-01-13T04:48:17.459Z,88.58
2023-01-13T04:50:45.335Z,88.55
2023-01-13T04:53:13.556Z,88.43
2023-01-13T04:55:41.331Z,88.50
2023-01-13T04:58:11.001Z,88.19
2023-01-13T05:00:39.949Z,88.42
2023-01-13T05:03:08.411Z,88.41
2023-01-13T05:05:36.568Z,88.24
2023-01-13T05:08:05.776Z,88.38
2023-01-13T05:10:34.151Z,88.36
2023-01-13T05:13:21.031Z,88.35
2023-01-13T05:16:10.444Z,88.62
2023-01-13T05:18:39.488Z,88.14
2023-01-13T05:21:27.426Z,88.36
2023-01-13T05:24:34.097Z,88.37
2023-01-13T05:27:01.884Z,88.37
2023-01-13T05:29:29.829Z,88.40
2023-01-13T05:31:57.712Z,88.34
2023-01-13T05:34:25.559Z,88.21
2023-01-13T05:36:53.428Z,88.21
2023-01-13T05:39:21.406Z,88.40
2023-01-13T05:42:08.111Z,88.37
2023-01-13T05:44:35.891Z,88.70
2023-01-13T05:47:03.839Z,88.78
2023-01-13T05:49:31.859Z,89.02
2023-01-13T05:51:59.671Z,89.01
2023-01-13T05:54:27.537Z,89.25
2023-01-13T05:56:55.607Z,89.54
2023-01-13T05:59:23.578Z,89.59
2023-01-13T06:01:51.375Z,89.75
2023-01-13T06:04:19.300Z,89.79
2023-01-13T06:06:47.374Z,89.99
2023-01-13T06:09:15.438Z,90.05
2023-01-13T06:11:43.839Z,90.06
2023-01-13T06:14:11.922Z,90.20
2023-01-13T06:16:39.732Z,90.19
2023-01-13T06:19:13.127Z,90.29
2023-01-13T06:21:41.692Z,90.47
2023-01-13T06:24:09.475Z,90.48
2023-01-13T06:26:39.659Z,90.60
2023-01-13T06:29:10.272Z,90.62
2023-01-13T06:31:39.765Z,90.33
2023-01-13T06:34:12.655Z,90.63
2023-01-13T06:36:45.768Z,90.73
2023-01-13T06:39:17.542Z,90.90
2023-01-13T06:42:07.138Z,90.84
2023-01-13T06:44:34.969Z,91.37
2023-01-13T06:47:06.415Z,91.17
2023-01-13T06:49:34.665Z,91.28
2023-01-13T06:52:02.481Z,91.43
2023-01-13T06:54:30.416Z,91.57
2023-01-13T06:56:58.183Z,91.58
2023-01-13T06:59:26.163Z,91.70
2023-01-13T07:01:54.259Z,91.91
2023-01-13T07:04:22.374Z,91.94
2023-01-13T07:06:50.237Z,91.96
2023-01-13T07:09:18.563Z,91.90
2023-01-13T07:11:47.032Z,92.04
2023-01-13T07:14:33.720Z,92.03
2023-01-13T07:17:01.621Z,92.13
2023-01-13T07:19:29.640Z,92.38
2023-01-13T07:21:57.506Z,92.17
2023-01-13T07:24:25.327Z,92.37
2023-01-13T07:26:53.252Z,92.47
2023-01-13T07:29:21.074Z,92.46
2023-01-13T07:31:50.270Z,92.53
2023-01-13T07:34:18.684Z,92.65
2023-01-13T07:36:46.602Z,92.60
2023-01-13T07:39:14.456Z,92.50
2023-01-13T07:42:01.023Z,92.46
2023-01-13T07:44:28.780Z,92.49
2023-01-13T07:46:56.749Z,92.48
2023-01-13T07:49:24.622Z,92.54
2023-01-13T07:51:52.485Z,92.62
2023-01-13T07:54:25.517Z,92.57
2023-01-13T07:56:59.703Z,92.39
2023-01-13T07:59:27.525Z,92.40
2023-01-13T08:01:55.466Z,92.29
2023-01-13T08:04:23.687Z,92.42
2023-01-13T08:06:51.522Z,91.95
2023-01-13T08:09:19.434Z,92.45
2023-01-13T08:12:07.188Z,92.09
2023-01-13T08:14:35.017Z,92.15
2023-01-13T08:17:04.464Z,92.10
2023-01-13T08:19:32.315Z,92.38
2023-01-13T08:22:00.145Z,92.42
2023-01-13T08:24:28.248Z,92.44
2023-01-13T08:26:56.071Z,92.60
2023-01-13T08:29:23.897Z,92.22
2023-01-13T08:31:51.747Z,92.37
2023-01-13T08:34:19.654Z,92.28
2023-01-13T08:36:50.137Z,92.45
2023-01-13T08:39:18.813Z,92.46
2023-01-13T08:41:55.694Z,92.50
2023-01-13T08:44:28.060Z,92.49
2023-01-13T08:46:56.879Z,92.43
2023-01-13T08:49:25.747Z,92.44
2023-01-13T08:51:54.069Z,92.33
2023-01-13T08:54:21.983Z,92.29
2023-01-13T08:56:49.871Z,92.23
2023-01-13T08:59:19.907Z,92.12
2023-01-13T09:01:48.053Z,91.96
2023-01-13T09:04:23.267Z,91.96
2023-01-13T09:06:52.008Z,91.91
2023-01-13T09:09:20.546Z,91.72
2023-01-13T09:12:10.283Z,91.64
2023-01-13T09:14:38.808Z,91.42
2023-01-13T09:17:08.044Z,91.30
2023-01-13T09:19:36.594Z,91.14
2023-01-13T09:22:05.367Z,91.37
2023-01-13T09:24:33.288Z,91.14
2023-01-13T09:27:01.103Z,91.11
2023-01-13T09:29:28.972Z,91.21
2023-01-13T09:31:58.235Z,90.95
2023-01-13T09:34:45.243Z,90.84
2023-01-13T09:37:13.035Z,90.77
2023-01-13T09:39:41.016Z,90.73
2023-01-13T09:42:41.142Z,90.72
2023-01-13T09:45:24.111Z,90.36
2023-01-13T09:48:08.822Z,90.29
2023-01-13T09:50:46.109Z,90.35
2023-01-13T09:53:20.799Z,90.01
2023-01-13T09:55:49.040Z,89.94
2023-01-13T09:58:18.925Z,89.97
2023-01-13T10:00:56.028Z,89.89
2023-01-13T10:03:27.716Z,89.60
2023-01-13T10:06:21.228Z,89.80
2023-01-13T10:08:49.528Z,89.49
2023-01-13T10:11:44.414Z,89.86
2023-01-13T10:14:50.162Z,89.75
2023-01-13T10:17:33.489Z,89.86
2023-01-13T10:20:08.368Z,89.40
2023-01-13T10:22:50.105Z,89.71
2023-01-13T10:25:46.574Z,89.44
2023-01-13T10:28:19.498Z,89.54
2023-01-13T10:30:47.918Z,89.25
2023-01-13T10:33:18.952Z,89.22
2023-01-13T10:35:56.558Z,88.93
2023-01-13T10:38:36.503Z,89.05
2023-01-13T10:41:20.435Z,89.03
2023-01-13T10:44:15.981Z,89.08
2023-01-13T10:46:56.193Z,88.72
2023-01-13T10:49:33.111Z,88.66
2023-01-13T10:52:02.159Z,88.60
2023-01-13T10:54:31.037Z,88.98
2023-01-13T10:57:23.083Z,88.51
2023-01-13T10:59:51.605Z,88.60
2023-01-13T11:02:27.360Z,88.54
2023-01-13T11:04:55.275Z,88.29
2023-01-13T11:07:41.609Z,88.38
2023-01-13T11:10:09.517Z,88.19
2023-01-13T11:12:52.493Z,88.11
2023-01-13T11:15:31.417Z,88.15
2023-01-13T11:18:05.186Z,87.76
2023-01-13T11:20:43.032Z,87.77
2023-01-13T11:23:27.538Z,87.47
2023-01-13T11:26:21.947Z,87.60
2023-01-13T11:29:13.807Z,87.07
2023-01-13T11:32:00.349Z,86.89
2023-01-13T11:34:32.732Z,86.66
2023-01-13T11:37:03.784Z,86.37
2023-01-13T11:39:58.039Z,86.11
2023-01-13T11:42:32.339Z,86.50
2023-01-13T11:45:23.264Z,86.47
2023-01-13T11:47:54.056Z,86.34
2023-01-13T11:50:42.340Z,86.10
2023-01-13T11:53:35.053Z,85.98
2023-01-13T11:56:29.326Z,86.12
2023-01-13T11:59:16.211Z,86.28
2023-01-13T12:01:54.693Z,85.81
2023-01-13T12:04:46.478Z,85.59
2023-01-13T12:07:36.069Z,85.20
2023-01-13T12:10:13.688Z,85.07
2023-01-13T12:12:51.872Z,84.78
2023-01-13T12:15:22.681Z,84.89
2023-01-13T12:18:14.538Z,84.37
2023-01-13T12:21:10.867Z,84.36
2023-01-13T12:24:16.720Z,84.19
2023-01-13T12:27:37.413Z,84.38
2023-01-13T12:30:37.460Z,83.76
2023-01-13T12:33:29.489Z,83.99
2023-01-13T12:36:14.769Z,84.14
2023-01-13T12:38:55.825Z,84.11
2023-01-13T12:42:00.942Z,84.19
2023-01-13T12:44:29.179Z,83.99
2023-01-13T12:46:59.904Z,83.88
2023-01-13T12:49:33.057Z,83.81
2023-01-13T12:52:11.245Z,83.85
2023-01-13T12:54:45.047Z,83.82
2023-01-13T12:57:24.440Z,83.59
2023-01-13T13:00:04.597Z,83.53
2023-01-13T13:02:38.684Z,83.44
2023-01-13T13:05:25.226Z,83.53
2023-01-13T13:08:27.974Z,83.33
2023-01-13T13:11:02.024Z,83.34
2023-01-13T13:13:47.256Z,83.48
2023-01-13T13:16:36.843Z,83.41
2023-01-13T13:19:22.812Z,83.29
2023-01-13T13:22:10.145Z,83.33
2023-01-13T13:24:40.062Z,83.37
2023-01-13T13:27:26.539Z,83.14
2023-01-13T13:30:13.372Z,83.05
2023-01-13T13:33:02.755Z,82.97
2023-01-13T13:35:57.641Z,83.09
2023-01-13T13:39:18.545Z,83.63
2023-01-13T13:42:09.170Z,83.41
2023-01-13T13:45:01.237Z,83.22
2023-01-13T13:47:37.143Z,83.59
2023-01-13T13:50:14.751Z,83.53
2023-01-13T13:52:54.489Z,83.48
2023-01-13T13:55:27.813Z,83.44
2023-01-13T13:57:57.739Z,83.42
2023-01-13T14:00:34.768Z,83.56
2023-01-13T14:03:08.486Z,83.76
2023-01-13T14:05:38.090Z,83.75
2023-01-13T14:08:17.498Z,83.79
2023-01-13T14:10:46.734Z,83.78
2023-01-13T14:13:27.748Z,84.02
2023-01-13T14:16:02.112Z,83.80
2023-01-13T14:18:34.172Z,84.02
2023-01-13T14:21:16.696Z,83.81
2023-01-13T14:23:54.066Z,83.85
2023-01-13T14:26:28.340Z,83.84
2023-01-13T14:28:58.550Z,84.13
2023-01-13T14:31:27.327Z,84.04
2023-01-13T14:33:58.480Z,83.95
2023-01-13T14:36:32.388Z,84.09
2023-01-13T14:39:03.300Z,84.30
2023-01-13T14:41:37.295Z,83.92
2023-01-13T14:44:22.482Z,84.11
2023-01-13T14:46:51.373Z,84.14
2023-01-13T14:49:32.013Z,84.01
2023-01-13T14:52:13.929Z,84.15
2023-01-13T14:54:47.941Z,84.28
2023-01-13T14:57:29.524Z,84.46
2023-01-13T15:00:15.700Z,84.39
2023-01-13T15:02:43.889Z,84.65
2023-01-13T15:05:24.542Z,84.59
2023-01-13T15:07:56.541Z,84.53
2023-01-13T15:10:33.827Z,84.70
2023-01-13T15:13:05.535Z,84.84
2023-01-13T15:15:39.594Z,84.62
2023-01-13T15:18:17.018Z,84.53
2023-01-13T15:20:45.002Z,84.50
2023-01-13T15:23:13.147Z,84.42
2023-01-13T15:25:42.843Z,84.46
2023-01-13T15:28:23.002Z,84.44
2023-01-13T15:30:52.874Z,84.39
2023-01-13T15:33:22.309Z,84.52
2023-01-13T15:35:52.602Z,84.50
2023-01-13T15:38:23.591Z,84.71
2023-01-13T15:40:53.019Z,84.68
2023-01-13T15:43:43.776Z,84.80
2023-01-13T15:46:38.393Z,84.71
2023-01-13T15:49:20.425Z,84.73
2023-01-13T15:51:49.880Z,84.93
2023-01-13T15:54:20.003Z,84.68
2023-01-13T15:56:47.957Z,84.75
2023-01-13T15:59:19.273Z,85.10
2023-01-13T16:01:47.354Z,85.15
2023-01-13T16:04:15.551Z,85.23
2023-01-13T16:06:43.514Z,85.18
2023-01-13T16:09:14.150Z,85.57
2023-01-13T16:11:42.257Z,85.56
2023-01-13T16:14:10.123Z,85.33
2023-01-13T16:16:38.090Z,85.58
2023-01-13T16:19:05.976Z,85.76
2023-01-13T16:21:33.800Z,85.82
2023-01-13T16:24:01.882Z,85.84
2023-01-13T16:26:30.478Z,85.68
2023-01-13T16:28:58.745Z,85.62
2023-01-13T16:31:33.034Z,85.41
2023-01-13T16:34:02.487Z,85.38
2023-01-13T16:36:34.750Z,85.24
2023-01-13T16:39:04.578Z,85.34
2023-01-13T16:41:33.607Z,85.26
2023-01-13T16:44:05.997Z,85.03
2023-01-13T16:46:34.232Z,85.11
2023-01-13T16:49:05.000Z,84.98
2023-01-13T16:51:33.777Z,85.05
2023-01-13T16:54:01.668Z,84.78
2023-01-13T16:56:32.492Z,84.82
2023-01-13T16:59:05.746Z,84.66
2023-01-13T17:01:37.430Z,84.79
2023-01-13T17:04:06.152Z,84.75
2023-01-13T17:06:38.928Z,84.59
2023-01-13T17:09:14.592Z,84.91
2023-01-13T17:11:42.495Z,84.71
2023-01-13T17:14:19.182Z,84.93
2023-01-13T17:16:47.798Z,84.87
2023-01-13T17:19:16.347Z,84.96
2023-01-13T17:21:44.302Z,85.10
2023-01-13T17:24:12.581Z,84.92
2023-01-13T17:26:46.931Z,84.90
2023-01-13T17:29:18.426Z,84.80
2023-01-13T17:31:46.501Z,84.87
2023-01-13T17:34:14.775Z,84.61
2023-01-13T17:36:45.591Z,84.67
2023-01-13T17:39:19.435Z,84.79
2023-01-13T17:41:47.974Z,84.79
2023-01-13T17:44:17.939Z,84.70
2023-01-13T17:46:46.128Z,84.78
2023-01-13T17:49:17.415Z,84.86
2023-01-13T17:51:48.701Z,84.93
2023-01-13T17:54:17.319Z,84.92
2023-01-13T17:56:45.684Z,84.85
2023-01-13T17:59:16.676Z,84.95
2023-01-13T18:01:45.789Z,84.80
2023-01-13T18:04:19.631Z,84.60
2023-01-13T18:06:48.871Z,84.70
2023-01-13T18:09:18.071Z,84.73
2023-01-13T18:11:47.294Z,85.13
2023-01-13T18:14:16.287Z,85.17
2023-01-13T18:16:44.740Z,84.92
2023-01-13T18:19:31.785Z,85.11
2023-01-13T18:22:18.503Z,85.26
2023-01-13T18:25:04.844Z,85.30
2023-01-13T18:27:36.100Z,85.29
2023-01-13T18:30:05.201Z,85.22
2023-01-13T18:32:34.661Z,85.19
2023-01-13T18:35:07.080Z,84.96
2023-01-13T18:37:38.788Z,85.17
2023-01-13T18:40:09.517Z,85.14
2023-01-13T18:42:54.724Z,85.01
2023-01-13T18:45:31.994Z,85.12
2023-01-13T18:48:02.864Z,85.25
2023-01-13T18:50:31.911Z,85.06
2023-01-13T18:52:59.850Z,85.00
2023-01-13T18:55:28.850Z,85.03
2023-01-13T18:57:57.219Z,84.97
2023-01-13T19:00:27.242Z,85.12
2023-01-13T19:05:36.184Z,84.94
2023-01-13T19:08:05.546Z,84.88
2023-01-13T19:10:33.591Z,84.88
2023-01-13T19:13:01.828Z,84.77
2023-01-13T19:15:30.462Z,84.87
2023-01-13T19:17:58.538Z,84.67
2023-01-13T19:20:26.475Z,84.70
2023-01-13T19:22:55.059Z,84.96
2023-01-13T19:25:23.096Z,84.89
2023-01-13T19:27:51.042Z,85.00
2023-01-13T19:30:19.098Z,84.80
2023-01-13T19:32:47.008Z,84.89
2023-01-13T19:35:17.957Z,84.84
2023-01-13T19:37:45.979Z,84.74
2023-01-13T19:40:14.197Z,84.78
2023-01-13T19:43:04.892Z,84.71
2023-01-13T19:45:35.416Z,84.93
2023-01-13T19:48:05.646Z,84.86
2023-01-13T19:50:41.350Z,85.07
2023-01-13T19:53:17.318Z,85.07
2023-01-13T19:55:48.419Z,85.20
2023-01-13T19:58:18.955Z,85.06
2023-01-13T20:00:48.480Z,85.14
2023-01-13T20:03:19.399Z,85.03
2023-01-13T20:05:47.955Z,84.92
2023-01-13T20:08:16.397Z,84.97
2023-01-13T20:10:46.143Z,85.16
2023-01-13T20:13:15.132Z,84.98
2023-01-13T20:15:44.233Z,85.34
2023-01-13T20:18:12.704Z,85.24
2023-01-13T20:20:40.465Z,85.23
2023-01-13T20:23:09.541Z,85.05
2023-01-13T20:25:37.376Z,85.01
2023-01-13T20:28:06.876Z,84.89
2023-01-13T20:30:34.731Z,85.13
2023-01-13T20:33:02.675Z,85.10
2023-01-13T20:35:30.631Z,84.95
2023-01-13T20:37:58.617Z,85.11
2023-01-13T20:40:26.585Z,85.09
2023-01-13T20:42:54.813Z,85.32
2023-01-13T20:45:23.536Z,85.16
2023-01-13T20:47:51.829Z,85.39
2023-01-13T20:50:20.225Z,85.33
2023-01-13T20:52:48.513Z,85.41
2023-01-13T20:55:16.498Z,85.43
2023-01-13T20:57:48.537Z,85.54
2023-01-13T21:00:17.452Z,85.74
2023-01-13T21:02:45.440Z,85.76
2023-01-13T21:05:13.839Z,86.14
2023-01-13T21:07:41.720Z,86.28
2023-01-13T21:10:11.424Z,86.44
2023-01-13T21:12:58.197Z,86.51
2023-01-13T21:15:27.680Z,86.74
2023-01-13T21:18:14.183Z,86.55
2023-01-13T21:20:41.881Z,86.81
2023-01-13T21:23:10.951Z,86.84
2023-01-13T21:25:40.208Z,87.04
2023-01-13T21:28:11.279Z,87.17
2023-01-13T21:30:40.039Z,87.06
2023-01-13T21:33:13.433Z,86.97
2023-01-13T21:35:41.405Z,87.10
2023-01-13T21:38:10.875Z,87.23
2023-01-13T21:40:38.705Z,87.25
2023-01-13T21:43:25.667Z,87.30
2023-01-13T21:46:12.255Z,87.31
2023-01-13T21:48:40.555Z,87.47
2023-01-13T21:51:09.195Z,87.61
2023-01-13T21:53:37.007Z,87.66
2023-01-13T21:56:05.787Z,87.79
2023-01-13T21:58:33.672Z,88.14
2023-01-13T22:01:02.773Z,88.14
2023-01-13T22:03:30.817Z,88.21
2023-01-13T22:05:58.802Z,88.27
2023-01-13T22:08:26.769Z,88.25
2023-01-13T22:10:57.965Z,88.39
2023-01-13T22:13:47.902Z,88.24
2023-01-13T22:16:16.294Z,88.43
2023-01-13T22:18:44.380Z,88.25
2023-01-13T22:21:12.239Z,88.25
2023-01-13T22:23:40.483Z,88.46
2023-01-13T22:26:10.901Z,88.52
2023-01-13T22:28:43.398Z,88.64
2023-01-13T22:31:17.861Z,88.54
2023-01-13T22:33:47.231Z,88.68
2023-01-13T22:36:16.190Z,88.94
2023-01-13T22:38:44.770Z,88.87
2023-01-13T22:41:13.038Z,88.90
2023-01-13T22:43:41.435Z,89.22
2023-01-13T22:46:11.955Z,89.25
2023-01-13T22:48:41.565Z,89.29
2023-01-13T22:51:15.307Z,89.35
2023-01-13T22:53:43.651Z,89.56
2023-01-13T22:56:18.246Z,89.55
2023-01-13T22:58:46.253Z,89.61
2023-01-13T23:01:17.377Z,89.69
2023-01-13T23:03:47.984Z,89.69
2023-01-13T23:06:18.359Z,89.82
2023-01-13T23:08:47.228Z,89.83
2023-01-13T23:11:17.730Z,90.05
2023-01-13T23:13:46.450Z,90.03
2023-01-13T23:16:17.130Z,90.21
2023-01-13T23:18:48.221Z,90.48
2023-01-13T23:21:19.164Z,90.58
2023-01-13T23:23:48.132Z,90.65
2023-01-13T23:26:17.114Z,90.66
2023-01-13T23:28:45.181Z,90.93
2023-01-13T23:31:16.140Z,90.93
2023-01-13T23:33:44.934Z,91.27
2023-01-13T23:36:18.975Z,91.23
2023-01-13T23:38:47.432Z,91.46
2023-01-13T23:41:18.073Z,91.41
2023-01-13T23:43:57.032Z,91.61
2023-01-13T23:46:26.129Z,91.57
2023-01-13T23:48:55.570Z,91.76
2023-01-13T23:51:25.398Z,91.59
2023-01-13T23:53:54.385Z,91.78
2023-01-13T23:56:24.626Z,91.90
2023-01-13T23:58:52.990Z,92.20
